createdAt,value
2017-07-30T18:31:11.947Z,272
2017-07-30T18:36:29.167Z,220
2017-07-30T18:36:39.033Z,220
2017-07-30T18:36:48.900Z,216
2017-07-30T18:36:59.056Z,216
2017-07-30T18:37:09.221Z,216
2017-07-30T18:37:19.097Z,212
2017-07-30T18:37:29.232Z,212
2017-07-30T18:37:39.376Z,212
2017-07-30T18:37:48.961Z,208
2017-07-30T18:37:58.815Z,208
2017-07-30T18:43:16.542Z,164
2017-07-30T18:48:33.097Z,140
2017-07-30T18:48:42.989Z,140
2017-07-30T18:48:52.849Z,144
2017-07-30T18:53:59.244Z,144
2017-07-30T18:54:09.404Z,140
2017-07-30T18:54:19.007Z,140
2017-07-30T19:04:24.421Z,80
2017-07-30T19:04:34.580Z,76
2017-07-30T19:09:41.069Z,40
2017-07-30T19:09:51.220Z,36
2017-07-30T19:14:57.617Z,16
2017-07-30T19:15:07.772Z,20
2017-07-30T19:15:17.945Z,16
2017-07-30T19:15:28.105Z,16
2017-07-30T19:15:38.269Z,16
2017-07-30T19:15:48.135Z,12
2017-07-30T19:15:58.293Z,16
2017-07-30T19:16:08.160Z,16
2017-07-30T19:16:18.325Z,12
2017-07-30T19:21:34.659Z,4
2017-07-30T19:21:44.541Z,4
2017-07-30T19:32:01.925Z,0
2017-07-30T19:32:12.080Z,0
2017-07-30T19:32:22.231Z,0
2017-07-30T19:32:32.112Z,0
2017-07-30T19:37:43.437Z,0
2017-07-30T19:37:53.604Z,0
2017-07-30T19:47:59.461Z,0
2017-07-30T19:48:09.633Z,0
2017-07-30T19:58:32.285Z,0
2017-07-30T19:58:42.433Z,0
2017-07-30T20:03:50.057Z,0
2017-07-30T20:08:56.450Z,0
2017-07-30T20:09:06.609Z,0
2017-07-30T20:09:16.768Z,0
2017-07-30T20:09:26.909Z,0
2017-07-30T20:09:37.063Z,0
2017-07-30T20:09:47.221Z,0
2017-07-30T20:09:57.093Z,0
2017-07-30T20:10:06.684Z,0
2017-07-30T20:10:16.553Z,0
2017-07-30T20:10:26.701Z,0
2017-07-30T20:20:44.249Z,0
2017-07-30T20:26:00.509Z,0
2017-07-30T20:26:10.673Z,0
2017-07-30T20:26:19.981Z,0
2017-07-30T20:26:29.837Z,0
2017-07-30T20:26:39.997Z,0
2017-07-30T20:26:50.161Z,0
2017-07-30T20:26:59.749Z,0
2017-07-30T20:27:09.893Z,0
2017-07-30T20:27:20.041Z,0
2017-07-30T20:27:30.205Z,0
2017-07-30T20:27:40.073Z,0
2017-07-30T20:27:50.221Z,0
2017-07-30T20:28:00.377Z,0
2017-07-30T20:28:10.253Z,0
2017-07-30T20:28:20.412Z,0
2017-07-30T20:28:30.561Z,0
2017-07-30T20:28:40.729Z,0
2017-07-30T20:28:50.900Z,0
2017-07-30T20:29:00.773Z,0
2017-07-30T20:29:10.933Z,0
2017-07-30T20:29:21.106Z,0
2017-07-30T20:29:30.969Z,0
2017-07-30T20:39:53.892Z,0
2017-07-30T20:40:03.753Z,0
2017-07-30T20:40:12.765Z,0
2017-07-30T20:40:22.913Z,0
2017-07-30T20:40:33.069Z,0
2017-07-30T20:40:43.220Z,0
2017-07-30T20:40:52.792Z,0
2017-07-30T20:41:02.369Z,0
2017-07-30T20:46:05.953Z,0
2017-07-30T20:46:15.801Z,0
2017-07-30T20:46:25.957Z,0
2017-07-30T20:46:36.116Z,0
2017-07-30T20:46:45.997Z,0
2017-07-30T20:46:56.145Z,0
2017-07-30T20:47:06.021Z,0
2017-07-30T20:47:15.877Z,0
2017-07-30T20:47:25.733Z,0
2017-07-30T20:47:35.887Z,0
2017-07-30T20:52:43.693Z,0
2017-07-30T20:52:53.853Z,0
2017-07-30T20:53:03.725Z,0
2017-07-30T20:53:13.881Z,0
2017-07-30T20:53:24.036Z,0
2017-07-30T20:53:33.617Z,0
2017-07-30T20:53:43.496Z,0
2017-07-30T20:53:53.656Z,0
2017-07-30T20:54:03.537Z,0
2017-07-30T20:59:19.381Z,0
2017-07-30T20:59:29.549Z,0
2017-07-30T20:59:39.689Z,0
2017-07-30T21:04:52.317Z,0
2017-07-30T21:10:08.585Z,0
2017-07-30T21:15:25.537Z,0
2017-07-30T21:15:35.724Z,0
2017-07-30T21:15:45.301Z,0
2017-07-30T21:15:55.167Z,0
2017-07-30T21:16:05.028Z,0
2017-07-30T21:16:14.889Z,0
2017-07-30T21:16:25.049Z,0
2017-07-30T21:16:35.208Z,0
2017-07-30T21:16:45.377Z,0
2017-07-30T21:16:54.949Z,0
2017-07-30T21:17:04.816Z,0
2017-07-30T21:17:14.684Z,0
2017-07-30T21:17:24.541Z,0
2017-07-30T21:17:34.700Z,0
2017-07-30T21:17:44.853Z,0
2017-07-30T21:17:55.000Z,0
2017-07-30T21:18:05.169Z,0
2017-07-30T21:18:15.337Z,0
2017-07-30T21:18:25.510Z,0
2017-07-30T21:18:35.673Z,0
2017-07-30T21:18:45.841Z,0
2017-07-30T21:18:55.712Z,0
2017-07-30T21:19:05.565Z,0
2017-07-30T21:19:15.709Z,0
2017-07-30T21:19:25.865Z,0
2017-07-30T21:19:36.013Z,0
2017-07-30T21:19:45.869Z,0
2017-07-30T21:19:55.724Z,0
2017-07-30T21:20:05.593Z,0
2017-07-30T21:20:14.880Z,0
2017-07-30T21:20:24.765Z,0
2017-07-30T21:25:32.179Z,0
2017-07-30T21:25:42.358Z,0
2017-07-30T21:25:51.961Z,0
2017-07-30T21:31:04.537Z,0
2017-07-30T21:36:21.066Z,0
2017-07-30T21:41:27.457Z,0
2017-07-30T21:41:37.613Z,0
2017-07-30T21:41:47.769Z,0
2017-07-30T21:47:00.101Z,0
2017-07-30T21:47:09.960Z,0
2017-07-30T21:47:20.125Z,0
2017-07-30T21:47:30.281Z,0
2017-07-30T21:47:40.429Z,0
2017-07-30T21:47:50.280Z,0
2017-07-30T21:48:00.149Z,0
2017-07-30T21:48:10.308Z,0
2017-07-30T21:48:20.464Z,0
2017-07-30T21:48:30.324Z,0
2017-07-30T21:48:40.481Z,0
2017-07-30T21:48:50.640Z,0
2017-07-30T21:49:00.496Z,0
2017-07-30T21:49:10.368Z,0
2017-07-30T21:49:20.521Z,0
2017-07-30T21:49:30.684Z,0
2017-07-30T21:49:40.845Z,0
2017-07-30T21:49:50.992Z,0
2017-07-30T21:50:00.552Z,0
2017-07-30T21:50:10.709Z,0
2017-07-30T21:50:20.857Z,0
2017-07-30T21:50:30.716Z,0
2017-07-30T21:50:40.873Z,0
2017-07-30T21:50:51.020Z,0
2017-07-30T21:51:00.605Z,0
2017-07-30T21:51:10.764Z,0
2017-07-30T21:51:20.920Z,0
2017-07-30T21:51:31.081Z,0
2017-07-30T21:51:41.233Z,0
2017-07-30T21:51:51.380Z,0
2017-07-30T21:57:07.617Z,0
2017-07-30T22:12:51.977Z,0
2017-07-30T22:13:02.116Z,0
2017-07-30T22:13:12.265Z,0
2017-07-30T22:13:22.402Z,0
2017-07-30T22:13:32.548Z,0
2017-07-30T22:13:42.704Z,0
2017-07-30T22:13:52.856Z,0
2017-07-30T22:14:02.421Z,0
2017-07-30T22:14:12.552Z,0
2017-07-30T22:14:22.709Z,0
2017-07-30T22:14:32.289Z,0
2017-07-30T22:19:41.216Z,0
2017-07-30T22:19:51.077Z,0
2017-07-30T22:25:07.036Z,0
2017-07-30T22:25:17.200Z,0
2017-07-30T22:25:27.053Z,0
2017-07-30T22:25:37.225Z,0
2017-07-30T22:25:47.373Z,0
2017-07-30T22:25:57.515Z,0
2017-07-30T22:26:07.385Z,0
2017-07-30T22:26:17.525Z,0
2017-07-30T22:26:27.392Z,0
2017-07-30T22:26:37.253Z,0
2017-07-30T22:31:51.493Z,0
2017-07-30T22:32:01.632Z,0
2017-07-30T22:32:11.509Z,0
2017-07-30T22:32:21.653Z,0
2017-07-30T22:42:32.108Z,0
2017-07-30T22:42:41.984Z,0
2017-07-30T22:42:51.538Z,0
2017-07-30T22:48:02.226Z,0
2017-07-30T22:48:12.109Z,0
2017-07-30T22:53:29.361Z,0
2017-07-30T22:53:38.949Z,0
2017-07-30T23:09:01.421Z,0
2017-07-30T23:09:11.573Z,0
2017-07-30T23:09:21.433Z,0
2017-07-30T23:09:31.589Z,0
2017-07-30T23:09:41.737Z,0
2017-07-30T23:09:51.593Z,0
2017-07-30T23:10:01.463Z,0
2017-07-30T23:10:11.325Z,0
2017-07-30T23:10:21.460Z,0
2017-07-30T23:10:31.625Z,0
2017-07-30T23:10:41.792Z,0
2017-07-30T23:10:51.661Z,0
2017-07-30T23:16:06.159Z,0
2017-07-30T23:16:16.309Z,0
2017-07-30T23:16:26.477Z,0
2017-07-30T23:21:40.120Z,0
2017-07-30T23:21:50.274Z,0
2017-07-30T23:22:00.428Z,0
2017-07-30T23:27:11.701Z,0
2017-07-30T23:32:28.221Z,0
2017-07-30T23:32:38.097Z,0
2017-07-30T23:32:48.270Z,0
2017-07-30T23:32:57.853Z,0
2017-07-30T23:33:07.713Z,0
2017-07-30T23:33:17.870Z,0
2017-07-30T23:33:28.021Z,0
2017-07-30T23:43:48.134Z,0
2017-07-30T23:43:58.298Z,0
2017-07-30T23:44:08.160Z,0
2017-07-30T23:44:18.029Z,0
2017-07-30T23:44:27.905Z,0
2017-07-30T23:44:37.757Z,0
2017-07-30T23:44:47.625Z,0
2017-07-30T23:44:57.786Z,0
2017-07-30T23:45:07.945Z,0
2017-07-30T23:45:18.110Z,0
2017-07-30T23:45:28.257Z,0
2017-07-30T23:50:36.365Z,0
2017-07-30T23:50:46.521Z,0
2017-07-30T23:50:56.397Z,0
2017-07-30T23:51:06.541Z,0
2017-07-30T23:51:16.686Z,0
2017-07-30T23:51:26.864Z,0
2017-07-30T23:51:37.021Z,0
2017-07-30T23:56:52.610Z,0
2017-07-30T23:57:02.477Z,0
2017-07-30T23:57:12.624Z,0
2017-07-30T23:57:22.485Z,0
